Wetterdaten: aktuell Freitag, 24.11.2017 08:00
Datum Zeit Temp. A. Luft Gew. Boden Gew. Boden A. Feuchte A. Luftdruck Regen Wind Richtung Richtung Sonnenschein ET UV Solar Taupunkt Windchill Windben Empfang
24.11.2017 08:00 2,7 C 1,7 C 0,0 C 0,0 C 91 % 1017,2 hPa 0,0 l/m 0,0 km/h (0 Bft) NW 313 0 min 0,000 mm 0,0 UV-I 13 W/m 1,4 C 2,7 C 0,0 km/h (0 Bft) 99,16 %
24.11.2017 07:00 2,8 C 2,2 C 0,0 C 0,0 C 90 % 1017,2 hPa 0,0 l/m 0,0 km/h (0 Bft) NW 313 0 min 0,000 mm 0,0 UV-I 0 W/m 1,3 C 2,8 C 0,0 km/h (0 Bft) 100,00 %
24.11.2017 06:00 3,7 C 3,3 C 0,0 C 0,0 C 89 % 1017,4 hPa 0,0 l/m 0,0 km/h (0 Bft) NW 313 0 min 0,000 mm 0,0 UV-I 0 W/m 2,1 C 3,7 C 0,0 km/h (0 Bft) 98,37 %
24.11.2017 05:00 4,8 C 4,4 C 0,0 C 0,0 C 89 % 1017,7 hPa 0,0 l/m 0,0 km/h (0 Bft) W-NW 282 0 min 0,000 mm 0,0 UV-I 0 W/m 3,1 C 4,8 C 0,0 km/h (0 Bft) 100,00 %
24.11.2017 04:00 4,9 C 3,9 C 0,0 C 0,0 C 90 % 1017,8 hPa 0,0 l/m 0,0 km/h (0 Bft) W-NW 282 0 min 0,000 mm 0,0 UV-I 0 W/m 3,4 C 4,9 C 0,0 km/h (0 Bft) 97,50 %
24.11.2017 03:00 4,5 C 3,9 C 0,0 C 0,0 C 89 % 1018,2 hPa 0,0 l/m 0,0 km/h (0 Bft) W-NW 284 0 min 0,000 mm 0,0 UV-I 0 W/m 2,8 C 4,5 C 0,0 km/h (0 Bft) 97,44 %
24.11.2017 02:00 4,4 C 3,3 C 0,0 C 0,0 C 89 % 1018,3 hPa 0,0 l/m 0,0 km/h (0 Bft) W-NW 284 0 min 0,000 mm 0,0 UV-I 0 W/m 2,7 C 4,4 C 0,0 km/h (0 Bft) 100,00 %
24.11.2017 01:00 4,3 C 3,9 C 0,0 C 0,0 C 86 % 1018,6 hPa 0,0 l/m 0,0 km/h (0 Bft) W-NW 284 0 min 0,000 mm 0,0 UV-I 0 W/m 2,2 C 4,3 C 0,0 km/h (0 Bft) 98,10 %
24.11.2017 00:00 5,3 C 4,4 C 0,0 C 0,0 C 84 % 1018,7 hPa 0,0 l/m 0,0 km/h (0 Bft) W 273 0 min 0,000 mm 0,0 UV-I 0 W/m 2,8 C 5,3 C 1,6 km/h (1 Bft) 96,58 %
23.11.2017 23:00 5,8 C 3,9 C 0,0 C 0,0 C 86 % 1018,4 hPa 0,0 l/m 0,3 km/h (0 Bft) W 272 0 min 0,000 mm 0,0 UV-I 0 W/m 3,6 C 5,8 C 3,2 km/h (1 Bft) 96,67 %
23.11.2017 22:00 5,2 C 3,9 C 0,0 C 0,0 C 88 % 1018,3 hPa 0,0 l/m 1,7 km/h (1 Bft) W 277 0 min 0,000 mm 0,0 UV-I 0 W/m 3,4 C 5,2 C 6,4 km/h (2 Bft) 95,00 %
23.11.2017 21:00 4,2 C 3,3 C 0,0 C 0,0 C 85 % 1018,2 hPa 0,0 l/m 0,2 km/h (0 Bft) W 277 0 min 0,000 mm 0,0 UV-I 0 W/m 1,9 C 4,2 C 3,2 km/h (1 Bft) 97,44 %
23.11.2017 20:00 5,2 C 3,9 C 0,0 C 0,0 C 82 % 1017,8 hPa 0,0 l/m 0,0 km/h (0 Bft) W 277 0 min 0,026 mm 0,0 UV-I 0 W/m 2,4 C 5,2 C 0,0 km/h (0 Bft) 97,44 %
23.11.2017 19:00 6,2 C 5,0 C 0,0 C 0,0 C 77 % 1017,8 hPa 0,0 l/m 0,0 km/h (0 Bft) W-NW 284 0 min 0,026 mm 0,0 UV-I 0 W/m 2,5 C 6,2 C 1,6 km/h (1 Bft) 97,46 %
23.11.2017 18:00 7,9 C 6,7 C 0,0 C 0,0 C 76 % 1017,4 hPa 0,0 l/m 0,0 km/h (0 Bft) NW 318 0 min 0,000 mm 0,0 UV-I 0 W/m 3,9 C 7,9 C 1,6 km/h (1 Bft) 98,29 %
23.11.2017 17:00 9,1 C 10,0 C 0,0 C 0,0 C 77 % 1016,9 hPa 0,0 l/m 0,2 km/h (0 Bft) S-SW 195 0 min 0,051 mm 0,0 UV-I 0 W/m 5,3 C 9,1 C 3,2 km/h (1 Bft) 100,00 %
23.11.2017 16:00 11,4 C 13,3 C 0,0 C 0,0 C 67 % 1016,8 hPa 0,0 l/m 0,0 km/h (0 Bft) S-SW 205 0 min 0,051 mm 0,0 UV-I 30 W/m 5,5 C 11,4 C 0,0 km/h (0 Bft) 99,15 %
23.11.2017 15:00 12,2 C 13,9 C 0,0 C 0,0 C 66 % 1015,9 hPa 0,0 l/m 6,9 km/h (2 Bft) SW 221 35 min 0,101 mm 0,0 UV-I 99 W/m 6,0 C 11,9 C 11,3 km/h (2 Bft) 100,00 %
23.11.2017 14:00 11,4 C 13,9 C 0,0 C 0,0 C 68 % 1015,5 hPa 0,0 l/m 8,3 km/h (2 Bft) W-SW 246 45 min 0,127 mm 0,6 UV-I 181 W/m 5,7 C 10,1 C 16,1 km/h (3 Bft) 97,44 %
23.11.2017 13:00 9,9 C 15,0 C 0,0 C 0,0 C 78 % 1015,8 hPa 0,0 l/m 7,0 km/h (2 Bft) W-SW 250 55 min 0,051 mm 0,9 UV-I 285 W/m 6,2 C 9,5 C 11,3 km/h (2 Bft) 100,00 %
23.11.2017 12:00 6,9 C 13,3 C 0,0 C 0,0 C 96 % 1015,8 hPa 0,0 l/m 8,5 km/h (2 Bft) W 267 15 min 0,051 mm 1,0 UV-I 314 W/m 6,3 C 5,2 C 17,7 km/h (3 Bft) 97,46 %
23.11.2017 11:00 3,8 C 11,1 C 0,0 C 0,0 C 96 % 1016,0 hPa 0,2 l/m 0,8 km/h (0 Bft) W 279 0 min 0,051 mm 0,7 UV-I 119 W/m 3,2 C 3,8 C 6,4 km/h (2 Bft) 98,15 %
23.11.2017 10:00 1,3 C 6,1 C 0,0 C 0,0 C 95 % 1016,0 hPa 0,0 l/m 0,2 km/h (0 Bft) W-NW 288 0 min 0,025 mm 0,2 UV-I 91 W/m 0,6 C 1,3 C 3,2 km/h (1 Bft) 96,58 %
23.11.2017 09:00 -0,4 C -1,7 C 0,0 C 0,0 C 95 % 1015,4 hPa 0,0 l/m 2,2 km/h (1 Bft) W-NW 283 0 min 0,000 mm 0,0 UV-I 38 W/m -1,1 C -0,4 C 8,0 km/h (2 Bft) 99,15 %
_ Min-Zeit 09:00 09:00 09:00 09:00 15:05 09:00 - 09:20 - - - - - - 09:00 09:00 09:20 11:35
Minimum _ -0,4 C -1,7 C 0,0 C 0,0 C 65 % 1015,4 hPa - 0,0 km/h (0 Bft) - - - - - - -1,1 C -0,4 C 0,0 km/h (0 Bft) 92,37 %
_ Max-Zeit 14:55 12:20 09:00 09:00 11:40 23:20 10:10 12:10 - - 11:50 14:00 12:00 12:00 12:20 14:40 13:30 09:25
Maximum _ 12,3 C 15,0 C 0,0 C 0,0 C 97 % 1018,7 hPa 0,2 l/m 11,4 km/h
S-SW (2 Bft)
- - 5 min 0,127 mm 1,0 UV-I 314 W/m 7,2 C 12,0 C 24,1 km/h
SW (4 Bft)
100,00 %
Durchschnitt _ 5,4 C 6,0 C 0,0 C 0,0 C 85 % 1017,1 hPa #0,2 l/m 1,6 km/h (1 Bft) SW - #0 min. #0,000 mm 0,0 UV-I 7 W/m 3,0 C 5,3 C 4,3 km/h (1 Bft) 98,29 %